Time;durP1;ratioP1;P1;durP2;ratioP2;P2;SDS_P1;SDS_P2;PMS_P1;PMS_P2;Temp;Humidity;BMP_temperature;BMP_pressure;BME280_temperature;BME280_humidity;BME280_pressure;Samples;Min_cycle;Max_cycle;Signal;HPM_P1;HPM_P2
2022/09/22 00:01:22;;;;;;;;;6.33;5.00;;;;;17.43;48.15;-19674.66;4991839;27;45415;-72
2022/09/22 00:03:51;;;;;;;;;4.00;4.00;;;;;17.39;48.18;-19673.59;4967870;28;45466;-72
2022/09/22 00:06:21;;;;;;;;;4.33;4.33;;;;;17.36;48.38;-19672.78;4992120;28;45441;-72
2022/09/22 00:08:50;;;;;;;;;5.00;5.00;;;;;17.23;48.34;-19669.59;4985466;28;45396;-72
2022/09/22 00:11:19;;;;;;;;;7.33;5.00;;;;;17.31;48.30;-19671.59;4989178;28;45720;-72
2022/09/22 00:13:54;;;;;;;;;5.00;5.00;;;;;17.27;48.37;-19670.66;4994537;28;45514;-72
2022/09/22 00:16:24;;;;;;;;;4.67;3.67;;;;;17.25;48.40;-19669.97;4989202;28;45917;-72
2022/09/22 00:18:49;;;;;;;;;7.00;6.00;;;;;17.26;48.51;-19670.38;4991808;28;45495;-72
2022/09/22 00:21:17;;;;;;;;;4.00;4.00;;;;;17.16;48.64;-19667.72;4992229;28;45508;-72
2022/09/22 00:23:45;;;;;;;;;4.00;4.00;;;;;17.21;48.65;-19669.06;4989791;28;45444;-72
2022/09/22 00:26:16;;;;;;;;;7.00;5.33;;;;;17.19;48.44;-19668.50;4972946;28;47509;-72
2022/09/22 00:28:44;;;;;;;;;5.00;5.00;;;;;17.21;48.80;-19669.06;4989750;28;45543;-72
2022/09/22 00:31:14;;;;;;;;;5.00;5.00;;;;;17.19;48.57;-19668.38;4992587;28;45393;-72
2022/09/22 00:33:40;;;;;;;;;4.00;4.00;;;;;17.14;48.80;-19667.03;4990358;28;45497;-72
2022/09/22 00:36:07;;;;;;;;;5.00;4.00;;;;;17.12;49.13;-19666.50;4973210;28;47278;-72
2022/09/22 00:38:32;;;;;;;;;4.33;4.33;;;;;17.06;48.95;-19665.16;4990096;28;45597;-72
2022/09/22 00:41:00;;;;;;;;;4.00;4.00;;;;;17.07;49.02;-19665.44;4978410;27;45702;-72
2022/09/22 00:43:29;;;;;;;;;6.33;6.33;;;;;17.08;49.23;-19665.69;4991535;28;45587;-72
2022/09/22 00:46:00;;;;;;;;;8.33;5.00;;;;;17.10;49.29;-19666.09;4989765;28;45519;-72
2022/09/22 00:48:31;;;;;;;;;6.33;5.33;;;;;16.96;49.73;-19662.50;4989285;28;45495;-72
2022/09/22 00:51:00;;;;;;;;;6.33;4.67;;;;;17.07;49.90;-19665.44;4988462;28;45437;-72
2022/09/22 00:53:28;;;;;;;;;7.67;7.67;;;;;17.06;49.83;-19665.03;4983270;27;45632;-72
2022/09/22 00:56:11;;;;;;;;;6.00;6.00;;;;;17.02;49.90;-19663.97;4991587;28;46171;-72
2022/09/22 00:59:02;;;;;;;;;11.00;8.00;;;;;16.95;50.17;-19662.22;4986110;28;45465;-72
2022/09/22 01:01:27;;;;;;;;;4.67;4.67;;;;;16.96;50.30;-18903.03;4985369;28;45438;-72
2022/09/22 01:03:55;;;;;;;;;8.67;7.00;;;;;16.94;50.86;-12011.78;4968068;28;45480;-73
2022/09/22 01:06:25;;;;;;;;;8.67;7.00;;;;;16.94;51.12;-6371.69;4990871;28;46431;-72
2022/09/22 01:08:51;;;;;;;;;8.00;8.00;;;;;16.91;50.96;-10689.81;4973463;28;46654;-72
2022/09/22 01:11:19;;;;;;;;;10.67;7.67;;;;;16.87;51.02;-7183.50;4989349;28;45435;-73
2022/09/22 01:14:02;;;;;;;;;6.67;6.67;;;;;16.84;51.26;6474.72;4990110;28;45502;-72
2022/09/22 01:16:39;;;;;;;;;6.67;6.67;;;;;16.80;51.27;21506.66;4977855;28;46627;-72
2022/09/22 01:19:27;;;;;;;;;7.00;7.00;;;;;16.79;51.55;26935.34;4989790;28;45511;-72
2022/09/22 01:22:02;;;;;;;;;8.00;7.33;;;;;16.71;51.53;27026.22;4985236;28;45426;-72
2022/09/22 01:25:10;;;;;;;;;6.67;6.67;;;;;16.73;51.51;10983.06;4974348;28;45515;-72
2022/09/22 01:27:47;;;;;;;;;9.67;8.67;;;;;16.75;51.39;8944.66;4978042;28;45963;-72
2022/09/22 01:30:24;;;;;;;;;8.67;7.33;;;;;16.75;51.39;18761.56;4990131;28;45465;-72
2022/09/22 01:33:09;;;;;;;;;7.33;7.33;;;;;16.71;51.39;13124.84;4985681;28;45531;-73
2022/09/22 01:35:56;;;;;;;;;8.33;7.67;;;;;16.64;51.35;24036.53;4986204;28;45599;-72
2022/09/22 01:38:29;;;;;;;;;8.67;7.67;;;;;16.64;51.76;31511.56;4988643;28;45830;-72
2022/09/22 01:41:04;;;;;;;;;6.67;6.67;;;;;16.61;51.61;31842.81;4987317;28;45295;-73
2022/09/22 01:44:01;;;;;;;;;9.00;8.67;;;;;16.62;51.42;35953.44;4987866;28;46199;-72
2022/09/22 01:46:33;;;;;;;;;3.00;3.00;;;;;16.63;51.79;33341.59;4991618;28;45171;-73
2022/09/22 01:49:06;;;;;;;;;7.33;7.33;;;;;16.52;51.90;54378.13;4984067;28;46121;-72
2022/09/22 01:51:43;;;;;;;;;9.33;6.00;;;;;16.54;51.89;67725.25;4990891;27;45338;-72
2022/09/22 01:54:36;;;;;;;;;7.33;5.00;;;;;16.50;52.28;85979.59;4971136;28;45479;-73
2022/09/22 01:57:14;;;;;;;;;7.00;7.00;;;;;16.51;52.23;88040.44;4977648;28;45486;-72
2022/09/22 01:59:44;;;;;;;;;9.33;9.33;;;;;16.52;52.30;90789.41;4990006;28;47366;-72
2022/09/22 02:02:21;;;;;;;;;10.00;10.00;;;;;16.50;52.56;96975.59;4991753;28;45467;-72
2022/09/22 02:04:53;;;;;;;;;8.33;8.33;;;;;16.42;52.41;100749.19;4989492;28;45765;-73
2022/09/22 02:07:32;;;;;;;;;7.33;7.33;;;;;16.44;52.35;97309.69;4983499;28;45516;-73
2022/09/22 02:10:01;;;;;;;;;13.00;9.33;;;;;16.41;52.58;107640.19;4986015;28;47020;-72
2022/09/22 02:12:27;;;;;;;;;9.67;8.33;;;;;16.39;52.58;107291.59;4987839;28;45563;-72
2022/09/22 02:14:53;;;;;;;;;10.67;9.33;;;;;16.36;52.40;109009.88;4987679;28;45689;-73
2022/09/22 02:17:19;;;;;;;;;9.67;8.67;;;;;16.22;52.42;112090.31;4991703;28;45440;-72
2022/09/22 02:19:44;;;;;;;;;9.67;8.33;;;;;16.31;52.66;113143.44;4986724;28;45602;-72
2022/09/22 02:22:10;;;;;;;;;9.33;9.33;;;;;16.20;52.77;117958.84;4989360;28;45440;-72
2022/09/22 02:24:42;;;;;;;;;8.67;8.00;;;;;16.22;52.77;119001.16;4989937;28;45523;-72
2022/09/22 02:27:25;;;;;;;;;9.33;9.00;;;;;16.17;53.17;123141.09;4990923;28;45565;-73
2022/09/22 02:30:04;;;;;;;;;9.00;8.00;;;;;16.11;53.22;127977.41;4986880;28;46142;-72
2022/09/22 02:32:31;;;;;;;;;10.33;10.00;;;;;16.10;52.92;129361.34;4993782;28;45383;-72
2022/09/22 02:34:57;;;;;;;;;9.00;9.00;;;;;16.10;53.42;132828.69;4992515;27;45416;-72
2022/09/22 02:37:38;;;;;;;;;9.67;9.67;;;;;15.99;53.01;126912.09;4992325;28;45499;-72
2022/09/22 02:40:19;;;;;;;;;9.00;9.00;;;;;16.03;53.23;133507.72;4989074;28;47122;-72
2022/09/22 02:42:58;;;;;;;;;7.00;7.00;;;;;15.88;53.54;140415.75;4992712;28;45483;-72
2022/09/22 02:45:32;;;;;;;;;12.33;11.33;;;;;15.95;53.46;147385.91;4992396;28;45473;-72
2022/09/22 02:48:12;;;;;;;;;13.33;9.00;;;;;15.92;53.65;151209.47;4990559;28;46451;-72
2022/09/22 02:50:38;;;;;;;;;10.33;10.00;;;;;15.91;53.58;150509.00;4985219;28;45686;-72
2022/09/22 02:53:11;;;;;;;;;11.67;9.67;;;;;15.94;53.50;147383.38;4992190;28;45462;-72
2022/09/22 02:55:37;;;;;;;;;8.00;8.00;;;;;15.92;53.74;150861.16;4992274;28;45587;-72
2022/09/22 02:58:02;;;;;;;;;8.00;7.00;;;;;15.76;53.53;151516.50;4990629;28;45517;-72
2022/09/22 03:00:28;;;;;;;;;10.33;8.67;;;;;15.88;53.88;151895.81;4971007;28;47192;-72
2022/09/22 03:02:53;;;;;;;;;9.00;8.00;;;;;15.86;53.63;149452.91;4992230;28;45417;-72
2022/09/22 03:05:19;;;;;;;;;1.67;0.00;;;;;15.82;54.04;151880.25;4992058;27;45436;-73
2022/09/22 03:07:44;;;;;;;;;5.67;5.33;;;;;15.79;53.93;155009.78;4998360;28;45488;-73
2022/09/22 03:10:10;;;;;;;;;11.33;10.33;;;;;15.77;54.12;155007.22;4975298;28;45377;-72
2022/09/22 03:12:41;;;;;;;;;11.67;8.67;;;;;15.76;54.15;155004.59;4989690;28;45557;-72
2022/09/22 03:15:10;;;;;;;;;12.33;8.00;;;;;15.74;54.23;154998.00;4990479;28;45356;-72
2022/09/22 03:17:36;;;;;;;;;10.67;10.67;;;;;15.74;54.27;154999.31;4992024;28;45527;-73
2022/09/22 03:20:05;;;;;;;;;11.00;10.67;;;;;15.73;54.46;154995.34;4988532;28;46032;-73
2022/09/22 03:22:30;;;;;;;;;9.33;8.00;;;;;15.68;54.67;154983.41;4991837;28;45503;-74
2022/09/22 03:24:55;;;;;;;;;10.67;10.67;;;;;15.59;54.58;154960.97;4992191;28;45990;-72
2022/09/22 03:27:21;;;;;;;;;8.67;8.67;;;;;15.67;54.58;154979.47;4992677;27;45514;-72
2022/09/22 03:29:46;;;;;;;;;9.00;8.00;;;;;15.64;54.48;154972.88;4972835;28;47430;-72
2022/09/22 03:32:11;;;;;;;;;10.33;9.67;;;;;15.65;54.64;154974.19;4991615;28;45422;-72
2022/09/22 03:34:37;;;;;;;;;9.00;8.67;;;;;15.63;54.70;154971.50;4993038;27;45488;-72
2022/09/22 03:37:02;;;;;;;;;10.67;9.00;;;;;15.57;54.66;154955.69;4992084;28;45564;-72
2022/09/22 03:39:28;;;;;;;;;16.00;12.00;;;;;15.60;54.43;154963.59;4990656;28;46078;-72
2022/09/22 03:41:53;;;;;;;;;10.67;9.00;;;;;15.66;54.55;154976.81;4974397;28;45416;-73
2022/09/22 03:44:18;;;;;;;;;10.67;10.67;;;;;15.65;55.14;154974.19;4974976;28;45339;-72
2022/09/22 03:46:44;;;;;;;;;10.00;7.33;;;;;15.62;54.79;154968.88;4975517;28;45447;-72
2022/09/22 03:49:09;;;;;;;;;11.00;8.00;;;;;15.57;54.78;154955.69;4991518;27;46027;-72
2022/09/22 03:51:35;;;;;;;;;13.00;11.33;;;;;15.57;54.94;154954.38;4991640;28;45416;-72
2022/09/22 03:54:01;;;;;;;;;12.33;9.67;;;;;15.54;55.12;154947.72;4969101;28;47006;-72
2022/09/22 03:56:26;;;;;;;;;10.33;10.33;;;;;15.53;55.24;154943.81;4990383;28;45508;-72
2022/09/22 03:58:51;;;;;;;;;12.67;10.00;;;;;15.49;55.58;154933.22;4988919;28;45474;-72
2022/09/22 04:01:17;;;;;;;;;12.67;11.00;;;;;15.40;55.47;154910.75;4987745;27;45551;-72
2022/09/22 04:03:42;;;;;;;;;8.67;8.67;;;;;15.47;55.51;154927.94;4992508;28;45506;-73
2022/09/22 04:06:08;;;;;;;;;9.67;9.67;;;;;15.41;55.19;154913.44;4990408;28;45468;-72
2022/09/22 04:08:34;;;;;;;;;11.33;10.67;;;;;15.47;55.77;154927.94;4989004;28;46351;-73
2022/09/22 04:11:00;;;;;;;;;9.33;9.33;;;;;15.48;55.28;154931.91;4988554;28;45527;-72
2022/09/22 04:13:26;;;;;;;;;10.00;7.67;;;;;15.50;55.32;154937.19;4988906;28;45501;-73
2022/09/22 04:15:51;;;;;;;;;9.67;8.67;;;;;15.51;55.48;154939.81;4988436;28;45608;-73
2022/09/22 04:18:17;;;;;;;;;9.33;9.00;;;;;15.43;55.32;154917.34;5059678;28;46117;-72
2022/09/22 04:20:43;;;;;;;;;13.33;9.33;;;;;15.43;55.30;154918.72;4974710;28;45440;-73
2022/09/22 04:23:12;;;;;;;;;11.67;10.00;;;;;15.42;55.41;154916.03;4991680;28;45513;-73
2022/09/22 04:25:38;;;;;;;;;13.67;11.00;;;;;15.37;55.49;154902.84;4988710;28;45500;-72
2022/09/22 04:28:05;;;;;;;;;11.00;9.00;;;;;15.36;55.47;154901.53;4987787;28;45978;-73
2022/09/22 04:30:31;;;;;;;;;13.00;11.33;;;;;15.35;55.51;154897.56;4990172;28;45564;-72
2022/09/22 04:32:58;;;;;;;;;11.67;11.33;;;;;15.31;55.52;154886.97;4988993;28;45579;-73
2022/09/22 04:35:24;;;;;;;;;10.33;10.33;;;;;15.33;55.55;154892.28;4992163;28;45455;-72
2022/09/22 04:37:49;;;;;;;;;10.33;10.00;;;;;15.30;55.83;154884.38;4991447;28;46119;-72
2022/09/22 04:40:16;;;;;;;;;9.00;9.00;;;;;15.25;55.60;154871.16;4978679;28;45467;-72
2022/09/22 04:42:45;;;;;;;;;11.67;11.00;;;;;15.19;55.85;154856.63;4990806;28;45503;-72
2022/09/22 04:45:10;;;;;;;;;9.67;9.67;;;;;15.17;55.77;154852.69;4990993;27;45378;-72
2022/09/22 04:47:35;;;;;;;;;8.00;8.00;;;;;15.15;55.62;154846.09;4978148;28;46990;-72
2022/09/22 04:50:01;;;;;;;;;9.33;9.33;;;;;15.18;55.55;154854.00;4991960;28;47325;-72
2022/09/22 04:52:26;;;;;;;;;9.00;9.00;;;;;15.20;55.86;154859.28;4949376;28;45473;-72
2022/09/22 04:54:51;;;;;;;;;10.00;8.00;;;;;15.19;55.95;154856.63;4989004;28;45380;-72
2022/09/22 04:57:17;;;;;;;;;10.67;10.67;;;;;15.19;55.64;154857.97;4992803;28;47171;-72
2022/09/22 04:59:42;;;;;;;;;8.00;8.00;;;;;15.19;55.67;154857.97;4989159;28;45445;-72
2022/09/22 05:02:08;;;;;;;;;8.67;8.33;;;;;15.16;55.60;154850.00;4990005;28;45819;-72
2022/09/22 05:04:34;;;;;;;;;10.67;10.67;;;;;15.14;55.86;154843.41;4983115;28;45542;-72
2022/09/22 05:06:59;;;;;;;;;13.00;11.67;;;;;15.13;55.99;154840.81;4991048;28;45569;-72
2022/09/22 05:09:24;;;;;;;;;11.33;9.67;;;;;15.08;55.76;154828.91;4986026;28;45544;-72
2022/09/22 05:11:50;;;;;;;;;11.00;11.00;;;;;15.13;55.67;154840.81;4991064;28;45845;-73
2022/09/22 05:14:16;;;;;;;;;13.67;11.67;;;;;15.12;55.82;154838.13;4991481;28;45386;-75
2022/09/22 05:16:42;;;;;;;;;15.33;11.33;;;;;15.07;56.03;154826.25;4992024;28;46092;-73
2022/09/22 05:19:10;;;;;;;;;13.33;11.00;;;;;15.05;55.55;154819.66;4985682;28;45444;-75
2022/09/22 05:21:36;;;;;;;;;11.00;10.33;;;;;15.07;55.93;154826.25;4968570;28;45570;-76
2022/09/22 05:24:02;;;;;;;;;11.00;10.33;;;;;15.05;56.13;154819.66;4989447;28;45466;-73
2022/09/22 05:26:29;;;;;;;;;16.33;10.00;;;;;14.88;56.19;154777.41;4979043;28;46682;-73
2022/09/22 05:28:56;;;;;;;;;11.67;10.00;;;;;14.99;56.35;154805.16;4987336;28;46013;-73
2022/09/22 05:31:21;;;;;;;;;12.00;9.67;;;;;14.95;56.62;154794.56;4986451;28;45447;-74
2022/09/22 05:33:47;;;;;;;;;15.33;10.67;;;;;14.95;56.49;154794.56;4991378;27;45480;-74
2022/09/22 05:36:12;;;;;;;;;15.33;13.00;;;;;14.92;56.68;154786.66;4991076;28;46301;-74
2022/09/22 05:38:37;;;;;;;;;15.33;12.67;;;;;14.94;56.60;154791.97;4991534;28;45410;-73
2022/09/22 05:41:03;;;;;;;;;12.00;9.00;;;;;15.01;56.47;154809.06;4984430;28;45484;-73
2022/09/22 05:43:29;;;;;;;;;10.33;9.67;;;;;15.04;56.56;154817.03;4983298;28;45516;-73
2022/09/22 05:45:54;;;;;;;;;9.67;8.67;;;;;15.02;56.35;154811.75;4984608;28;47220;-74
2022/09/22 05:48:20;;;;;;;;;10.00;9.00;;;;;15.01;56.33;154810.44;4973131;28;45607;-69
2022/09/22 05:50:45;;;;;;;;;11.33;11.33;;;;;14.81;55.91;154757.63;4990826;28;45788;-70
2022/09/22 05:53:11;;;;;;;;;13.33;11.67;;;;;14.53;56.44;154687.59;4984750;28;45418;-69
2022/09/22 05:55:38;;;;;;;;;11.67;10.00;;;;;14.31;57.34;154629.56;4992836;28;45687;-69
2022/09/22 05:58:04;;;;;;;;;20.33;14.00;;;;;14.14;57.99;154587.34;4981440;28;45444;-69
2022/09/22 06:00:30;;;;;;;;;17.33;12.33;;;;;14.01;57.76;154551.72;4970380;28;45456;-69
2022/09/22 06:02:56;;;;;;;;;14.33;12.67;;;;;13.81;58.06;154501.53;4992094;28;45325;-69
2022/09/22 06:05:21;;;;;;;;;15.00;13.00;;;;;13.76;58.73;154488.38;4985816;28;47081;-69
2022/09/22 06:07:55;;;;;;;;;15.00;13.33;;;;;13.52;59.28;154427.69;4988208;28;45382;-69
2022/09/22 06:10:20;;;;;;;;;11.67;11.67;;;;;13.76;59.38;154487.06;4993496;28;45571;-69
2022/09/22 06:12:47;;;;;;;;;18.33;16.67;;;;;13.76;59.79;154487.06;4992766;28;45547;-70
2022/09/22 06:15:12;;;;;;;;;15.67;14.33;;;;;13.72;59.61;154479.16;4992107;28;46256;-71
2022/09/22 06:17:37;;;;;;;;;20.67;17.33;;;;;13.63;59.34;154455.41;4987592;28;45520;-70
2022/09/22 06:20:03;;;;;;;;;16.00;14.67;;;;;13.54;59.66;154431.69;4993129;28;45760;-71
2022/09/22 06:22:29;;;;;;;;;17.67;17.00;;;;;13.35;60.23;154381.56;4993578;28;45468;-71
2022/09/22 06:24:54;;;;;;;;;15.00;14.00;;;;;13.37;60.50;154388.16;4992510;28;46410;-71
2022/09/22 06:27:20;;;;;;;;;19.33;13.00;;;;;13.29;60.77;154368.34;4983994;28;45500;-72
2022/09/22 06:29:45;;;;;;;;;17.00;15.33;;;;;13.40;61.54;154394.75;4975226;28;45492;-71
2022/09/22 06:32:10;;;;;;;;;15.00;14.00;;;;;13.55;61.59;154434.28;4993361;28;45537;-71
2022/09/22 06:34:36;;;;;;;;;15.00;13.00;;;;;13.73;61.19;154480.47;4991900;28;45369;-71
2022/09/22 06:37:03;;;;;;;;;15.67;14.00;;;;;13.88;60.87;154518.69;4992939;28;45492;-71
2022/09/22 06:39:28;;;;;;;;;14.00;12.67;;;;;14.02;60.87;154555.63;4993054;28;45638;-72
2022/09/22 06:41:55;;;;;;;;;14.33;13.00;;;;;14.13;60.63;154583.38;4992539;28;45671;-70
2022/09/22 06:44:20;;;;;;;;;15.00;14.00;;;;;14.25;59.36;154613.72;4989357;28;46452;-72
2022/09/22 06:46:46;;;;;;;;;16.33;14.00;;;;;14.17;59.59;154593.94;5025044;28;45417;-70
2022/09/22 06:49:12;;;;;;;;;14.00;14.00;;;;;14.15;59.39;154589.94;4966481;28;45408;-73
2022/09/22 06:51:37;;;;;;;;;13.00;12.00;;;;;14.08;59.65;154570.19;4990516;28;45422;-70
2022/09/22 06:54:05;;;;;;;;;11.67;11.00;;;;;14.12;59.65;154580.75;4990441;28;46081;-71
2022/09/22 06:56:36;;;;;;;;;14.00;13.00;;;;;14.12;59.61;154580.75;4991364;28;45423;-71
2022/09/22 06:59:04;;;;;;;;;18.00;14.67;;;;;14.15;59.85;154589.94;4992056;28;45319;-71
2022/09/22 07:01:29;;;;;;;;;18.00;16.00;;;;;14.18;60.05;154595.25;4974943;28;45586;-71
2022/09/22 07:03:55;;;;;;;;;23.00;21.67;;;;;14.12;59.71;154582.06;4992399;28;46922;-71
2022/09/22 07:06:21;;;;;;;;;15.33;13.00;;;;;14.29;59.44;154625.59;4974904;28;45891;-70
2022/09/22 07:08:47;;;;;;;;;15.67;14.00;;;;;14.46;59.19;154669.13;4993133;28;45704;-71
2022/09/22 07:11:25;;;;;;;;;12.67;11.67;;;;;14.51;59.26;154682.31;4992918;28;45576;-71
2022/09/22 07:13:52;;;;;;;;;15.67;14.00;;;;;14.67;58.78;154723.28;4994002;28;45844;-71
2022/09/22 07:16:20;;;;;;;;;13.00;13.00;;;;;14.85;58.05;154769.50;4995877;28;45326;-71
2022/09/22 07:18:48;;;;;;;;;16.00;15.00;;;;;14.93;57.71;154790.59;4996261;28;45390;-71
2022/09/22 07:21:19;;;;;;;;;14.67;14.67;;;;;15.05;57.25;154820.97;4996371;28;45485;-71
2022/09/22 07:23:46;;;;;;;;;15.33;14.00;;;;;15.15;56.80;154847.41;4995742;28;45408;-71
2022/09/22 07:26:14;;;;;;;;;14.67;13.33;;;;;15.21;56.67;154861.91;4995321;28;45487;-70
2022/09/22 07:28:40;;;;;;;;;16.67;15.00;;;;;15.29;55.97;154880.34;4978494;28;45373;-71
2022/09/22 07:31:12;;;;;;;;;14.00;13.00;;;;;15.30;56.04;154885.66;4995943;28;45416;-71
2022/09/22 07:33:39;;;;;;;;;9.33;9.33;;;;;15.38;55.36;145509.63;4994245;28;46653;-71
2022/09/22 07:36:17;;;;;;;;;12.33;10.33;;;;;15.51;55.17;118169.25;4995809;28;45620;-71
2022/09/22 07:38:45;;;;;;;;;10.33;10.33;;;;;15.60;54.83;106117.22;4995931;28;45346;-71
2022/09/22 07:41:13;;;;;;;;;10.67;10.67;;;;;15.64;54.68;89179.84;4995972;28;45421;-71
2022/09/22 07:43:39;;;;;;;;;9.33;8.33;;;;;15.76;54.16;47581.81;4995548;28;45701;-71
2022/09/22 07:46:06;;;;;;;;;12.00;10.00;;;;;15.90;54.54;56286.91;4995790;28;45362;-71
2022/09/22 07:48:35;;;;;;;;;11.67;9.67;;;;;15.95;53.99;28053.31;4995754;28;45508;-71
2022/09/22 07:51:01;;;;;;;;;12.00;9.67;;;;;16.20;54.04;39564.22;5027270;28;45267;-71
2022/09/22 07:53:27;;;;;;;;;11.67;10.33;;;;;16.32;53.84;30756.13;5021841;28;47137;-71
2022/09/22 07:55:52;;;;;;;;;11.33;11.33;;;;;16.45;53.28;-19649.09;4995617;28;45366;-71
2022/09/22 07:58:17;;;;;;;;;9.33;9.33;;;;;16.59;53.39;-8461.88;4995651;28;45578;-71
2022/09/22 08:00:43;;;;;;;;;15.00;15.00;;;;;16.78;52.91;-19657.66;5010203;28;45453;-70
2022/09/22 08:03:08;;;;;;;;;12.00;7.67;;;;;16.88;52.35;-19660.47;5037491;28;45490;-72
2022/09/22 08:05:34;;;;;;;;;13.00;10.00;;;;;17.06;52.04;-19665.16;4974004;28;45407;-70
2022/09/22 08:08:01;;;;;;;;;13.67;11.33;;;;;17.30;51.35;-19671.31;4978746;28;45367;-70
2022/09/22 08:10:26;;;;;;;;;14.67;11.00;;;;;17.38;51.15;-19673.47;4995137;28;45470;-70
2022/09/22 08:12:56;;;;;;;;;9.33;4.33;;;;;17.62;51.25;-19679.63;4977787;28;45834;-70
2022/09/22 08:15:22;;;;;;;;;10.00;10.00;;;;;17.71;50.58;-19682.03;5062857;28;45978;-70
2022/09/22 08:17:49;;;;;;;;;17.67;13.33;;;;;17.92;50.23;-19687.66;4988084;28;45403;-70
2022/09/22 08:20:15;;;;;;;;;14.00;11.33;;;;;18.09;50.28;-19692.06;4969997;28;45377;-70
2022/09/22 08:22:41;;;;;;;;;16.00;12.00;;;;;18.24;49.77;-19695.81;4993541;28;46046;-70
2022/09/22 08:25:11;;;;;;;;;10.33;10.33;;;;;18.33;49.11;-19698.34;4988116;28;45500;-69
2022/09/22 08:27:36;;;;;;;;;9.00;9.00;;;;;18.45;48.90;-19701.28;4993005;28;45433;-70
2022/09/22 08:30:02;;;;;;;;;9.33;8.33;;;;;18.55;48.18;-19703.97;4992206;28;45489;-70
2022/09/22 08:32:29;;;;;;;;;12.33;9.33;;;;;18.64;48.20;-19706.22;4994498;28;45410;-70
2022/09/22 08:34:56;;;;;;;;;6.00;6.00;;;;;18.70;47.96;-19707.97;4983152;28;45352;-70
2022/09/22 08:37:22;;;;;;;;;10.00;7.67;;;;;18.74;47.37;-19708.91;4994567;28;45369;-70
2022/09/22 08:39:48;;;;;;;;;26.67;22.33;;;;;18.84;47.96;-19711.44;4994579;28;45320;-71
2022/09/22 08:42:22;;;;;;;;;22.00;18.00;;;;;18.91;47.66;-19713.44;4988109;28;46062;-71
2022/09/22 08:45:01;;;;;;;;;11.67;11.33;;;;;18.91;47.50;-19713.44;4980124;28;45365;-71
2022/09/22 08:53:45;;;;;;;;;7.33;6.00;;;;;18.93;46.16;-19713.84;4989769;28;45526;-70
2022/09/22 08:56:29;;;;;;;;;7.67;7.67;;;;;19.01;46.09;-19716.00;4994055;28;45488;-71
2022/09/22 08:59:22;;;;;;;;;7.33;5.67;;;;;19.09;45.49;-19718.00;4995109;28;45554;-70
2022/09/22 09:01:53;;;;;;;;;7.00;5.00;;;;;19.21;46.30;-19721.19;4991275;28;45382;-70
2022/09/22 09:04:56;;;;;;;;;6.00;6.00;;;;;19.32;45.98;-19724.00;4989414;28;46146;-71
2022/09/22 09:07:27;;;;;;;;;7.67;6.00;;;;;19.42;46.12;-19726.66;4987063;28;45417;-71
2022/09/22 09:10:14;;;;;;;;;12.00;6.33;;;;;19.57;46.08;-19730.66;4987678;28;45520;-70
2022/09/22 09:12:39;;;;;;;;;8.00;8.00;;;;;19.67;44.86;-19733.19;4983752;28;45576;-72
2022/09/22 09:15:25;;;;;;;;;9.67;8.33;;;;;19.75;45.31;-19735.34;4991609;28;46137;-69
2022/09/22 09:17:55;;;;;;;;;10.33;7.00;;;;;19.81;45.89;-19736.81;4988577;28;45414;-69
2022/09/22 09:20:30;;;;;;;;;9.33;6.33;;;;;20.18;44.83;-19746.41;4994388;28;45274;-70
2022/09/22 09:22:58;;;;;;;;;10.00;6.00;;;;;20.30;44.95;-19749.47;4991557;28;45342;-69
2022/09/22 09:25:38;;;;;;;;;13.00;8.00;;;;;20.43;43.90;-19753.06;4988644;28;46194;-69
2022/09/22 09:28:11;;;;;;;;;8.67;8.67;;;;;20.68;43.20;-19759.34;4968867;28;45420;-69
2022/09/22 09:30:52;;;;;;;;;8.33;6.00;;;;;21.10;43.80;-19770.41;4990750;28;45404;-76
2022/09/22 09:33:44;;;;;;;;;6.67;6.67;;;;;21.69;41.98;-19785.72;4975125;28;45303;-76
2022/09/22 09:36:16;;;;;;;;;7.00;6.00;;;;;22.10;41.75;-19796.34;4991066;28;46687;-78
2022/09/22 09:38:56;;;;;;;;;10.00;7.00;;;;;22.76;39.99;-19813.66;4994136;28;45436;-77
2022/09/22 09:41:26;;;;;;;;;5.33;3.00;;;;;24.29;38.08;-19853.06;4994309;28;45434;-78
2022/09/22 09:43:55;;;;;;;;;7.33;5.00;;;;;25.50;37.46;-19884.50;4994202;28;45376;-74
2022/09/22 09:46:23;;;;;;;;;8.33;6.33;;;;;26.59;35.24;-19231.72;4985000;28;45934;-72
2022/09/22 09:49:04;;;;;;;;;5.33;5.00;;;;;27.70;34.87;-17558.66;4968495;27;45923;-72
2022/09/22 09:51:34;;;;;;;;;4.00;4.00;;;;;28.85;32.51;-12468.63;4990480;28;46203;-72
2022/09/22 09:54:05;;;;;;;;;6.00;5.00;;;;;29.89;30.16;-7010.19;4982648;28;45678;-72
2022/09/22 09:56:31;;;;;;;;;5.00;5.00;;;;;30.71;29.75;-2556.31;4991091;28;45479;-73
2022/09/22 10:01:46;;;;;;;;;5.67;4.33;;;;;32.50;27.68;10545.13;4993905;28;45357;-70
2022/09/22 10:04:26;;;;;;;;;4.00;4.00;;;;;33.03;26.67;20937.47;4993849;28;45392;-68
2022/09/22 10:06:51;;;;;;;;;3.00;3.00;;;;;33.25;26.12;27724.47;4993758;28;47232;-68
2022/09/22 10:09:26;;;;;;;;;4.00;4.00;;;;;33.77;25.95;32455.22;4976172;28;45441;-70
2022/09/22 10:11:59;;;;;;;;;5.00;5.00;;;;;34.29;24.88;37441.47;4993106;28;45532;-69
2022/09/22 10:14:29;;;;;;;;;5.00;2.33;;;;;34.80;24.39;40859.00;4993001;28;45654;-70
2022/09/22 10:16:54;;;;;;;;;5.67;2.33;;;;;35.30;23.94;41699.78;4992257;28;46318;-71
2022/09/22 10:19:30;;;;;;;;;4.67;4.00;;;;;35.72;22.32;46991.28;4991486;28;45353;-70
2022/09/22 10:22:26;;;;;;;;;6.00;4.00;;;;;36.20;24.52;43407.50;4989074;28;45830;-70
2022/09/22 10:25:00;;;;;;;;;1.67;1.67;;;;;36.67;21.51;50545.84;4982333;28;45658;-70
2022/09/22 10:27:28;;;;;;;;;2.33;2.33;;;;;36.95;22.09;51170.91;4979762;28;45658;-70
2022/09/22 10:30:09;;;;;;;;;4.00;4.00;;;;;37.27;21.38;50901.78;4982863;28;45577;-70
2022/09/22 10:32:36;;;;;;;;;1.33;1.33;;;;;37.51;20.89;53439.34;4993031;28;45345;-70
2022/09/22 10:35:26;;;;;;;;;2.00;2.00;;;;;37.58;21.52;53028.00;4991332;28;46728;-70
2022/09/22 10:38:15;;;;;;;;;2.00;2.00;;;;;37.77;21.39;52872.16;4991678;28;45480;-70
2022/09/22 10:40:45;;;;;;;;;2.00;2.00;;;;;37.86;20.08;55853.44;4987415;28;45491;-70
2022/09/22 10:43:28;;;;;;;;;3.33;3.00;;;;;37.95;20.47;55922.13;4987287;28;45633;-70
2022/09/22 10:46:15;;;;;;;;;0.67;0.67;;;;;37.95;20.40;56577.22;4993114;28;45310;-73
2022/09/22 10:48:53;;;;;;;;;3.33;2.33;;;;;37.97;20.64;56697.53;4983387;28;46167;-73
2022/09/22 10:51:35;;;;;;;;;2.67;2.67;;;;;37.90;21.56;56365.94;4991342;28;45531;-73
2022/09/22 10:54:16;;;;;;;;;0.00;0.00;;;;;37.77;20.25;58548.06;4972483;28;45555;-80
2022/09/22 10:56:52;;;;;;;;;3.00;1.33;;;;;37.46;19.37;60372.16;4987142;28;47150;-73
2022/09/22 10:59:47;;;;;;;;;0.33;0.33;;;;;37.27;19.33;60331.53;4991590;28;46912;-74
2022/09/22 11:02:17;;;;;;;;;2.67;1.67;;;;;37.09;20.75;60112.09;4989455;27;45562;-75
2022/09/22 11:04:54;;;;;;;;;1.00;1.00;;;;;36.86;21.28;60157.72;4994594;28;45406;-73
2022/09/22 11:13:42;;;;;;;;;3.33;2.67;;;;;36.07;21.65;61013.00;4983742;28;45459;-73
2022/09/22 11:16:17;;;;;;;;;1.00;1.00;;;;;35.96;20.19;62158.25;4990763;28;46104;-71
2022/09/22 11:18:57;;;;;;;;;3.33;2.00;;;;;35.70;21.14;61669.72;4976113;28;45500;-72
2022/09/22 11:21:52;;;;;;;;;2.33;1.67;;;;;35.60;21.85;61862.34;4993813;28;46323;-72
2022/09/22 11:24:37;;;;;;;;;0.67;0.67;;;;;35.16;20.62;63205.69;4933785;28;45677;-71
2022/09/22 11:27:03;;;;;;;;;2.00;1.00;;;;;34.75;19.90;63823.69;4918654;28;45534;-73
2022/09/22 11:29:43;;;;;;;;;3.67;2.33;;;;;34.41;20.84;64166.69;4934801;28;45403;-71
2022/09/22 11:32:53;;;;;;;;;3.67;2.00;;;;;34.08;23.10;63031.38;4933512;28;46431;-72
2022/09/22 11:35:39;;;;;;;;;2.00;2.00;;;;;33.89;23.22;62625.66;4941949;28;45442;-71
2022/09/22 11:38:39;;;;;;;;;2.00;2.00;;;;;33.62;24.48;61639.50;4936387;28;45532;-71
2022/09/22 11:41:20;;;;;;;;;2.00;2.00;;;;;33.46;21.83;64187.31;4931533;28;45902;-73
2022/09/22 11:43:54;;;;;;;;;2.00;2.00;;;;;33.29;21.63;64421.66;4932244;28;45660;-75
2022/09/22 11:46:37;;;;;;;;;0.00;0.00;;;;;33.21;22.20;64095.81;4932730;28;45517;-73
2022/09/22 11:49:24;;;;;;;;;1.00;1.00;;;;;33.17;24.53;62712.03;4932752;28;45536;-73
2022/09/22 11:52:11;;;;;;;;;2.00;2.00;;;;;33.04;24.14;63370.56;4940912;28;45525;-76
2022/09/22 11:55:12;;;;;;;;;0.00;0.00;;;;;32.83;22.33;64519.22;4924973;28;47302;-74